Dades meteomassalio
Diari Summary for Febrer 8, 2017 Units:  Metric    English   Both
« Previous Day
Next Day »
Diari Semanal Mensual Anual Personalitzat
  Maxima: Minima: Mijana:
Temperatura: -17.8 °C -15.2 °C -13.9 °C
Rosada: -17.8 °C -17.3 °C -16.6 °C
Humitat: Humidity % 51 % 72 %
Velocitat del vent: 0 km/h 47.6 km/h 77.4 km/h
Racha vent: 0 km/h - -
Vent:- - NW
Pressio: 0 hPa 34544 hPa -
Pluja: 0 mm    
Historical Graphs
 
 
Tabular Data for Febrer 8, 2017
Time Temperature Dew Point Pressure Wind Wind Speed Wind Gust Humidity Rainfall Rate (Hourly) solar Conditions
-17.8 °C -17.8 °C 0 hPa Calm     Humidity % 0 mm SolarRadiationWatts/m^2 W/m2 Conditions
00:01 -13.3 °C -14.9 °C 34554.1 hPa NW 62.6 km/h 62.6 km/h 82 % 0 mm 0.0 W/m2 RA
00:06 -13.3 °C -14.9 °C 34567.7 hPa NW 50.7 km/h 50.7 km/h 82 % 0 mm 0.0 W/m2 CLR
00:11 -13.3 °C -15.1 °C 34567.7 hPa WNW 53.6 km/h 53.6 km/h 81 % 0 mm 0.0 W/m2 CLR
00:16 -13.3 °C -15.2 °C 34567.7 hPa NW 62.6 km/h 62.6 km/h 79 % 0 mm 0.0 W/m2 CLR
00:21 -13.4 °C -15.3 °C 34567.7 hPa NW 65.5 km/h 65.5 km/h 79 % 0 mm 0.0 W/m2 CLR
00:26 -13.4 °C -15.3 °C 34567.7 hPa NW 77.4 km/h 77.4 km/h 79 % 0 mm 0.0 W/m2 CLR
00:31 -13.5 °C -15.5 °C 34567.7 hPa WNW 77.4 km/h 77.4 km/h 78 % 0 mm 0.0 W/m2 CLR
00:36 -13.6 °C -15.4 °C 34567.7 hPa WNW 74.5 km/h 74.5 km/h 79 % 0 mm 0.0 W/m2 CLR
00:41 -13.6 °C -15.4 °C 34577.8 hPa WNW 68.6 km/h 68.6 km/h 80 % 0 mm 0.0 W/m2 CLR
00:46 -13.7 °C -15.4 °C 34577.8 hPa WNW 65.5 km/h 65.5 km/h 80 % 0 mm 0.0 W/m2 CLR
00:51 -13.7 °C -15.6 °C 34567.7 hPa WNW 68.6 km/h 68.6 km/h 79 % 0 mm 0.0 W/m2 CLR
00:56 -13.8 °C -15.7 °C 34567.7 hPa NW 68.6 km/h 68.6 km/h 79 % 0 mm 0.0 W/m2 CLR
01:01 -13.8 °C -15.6 °C 34567.7 hPa WNW 62.6 km/h 62.6 km/h 80 % 0 mm 0.0 W/m2 CLR
01:06 -13.9 °C -15.7 °C 34577.8 hPa WNW 68.6 km/h 68.6 km/h 80 % 0 mm 0.0 W/m2 CLR
01:11 -13.9 °C -15.8 °C 34577.8 hPa WNW 65.5 km/h 65.5 km/h 79 % 0 mm 0.0 W/m2 CLR
01:16 -13.9 °C -15.8 °C 34577.8 hPa WNW 71.5 km/h 71.5 km/h 79 % 0 mm 0.0 W/m2 CLR
01:21 -13.9 °C -15.8 °C 34577.8 hPa WNW 51.8 km/h 51.8 km/h 79 % 0 mm 0.0 W/m2 CLR
01:26 -13.9 °C -15.8 °C 34567.7 hPa WNW 53.6 km/h 53.6 km/h 79 % 0 mm 0.0 W/m2 CLR
01:31 -14 °C -15.9 °C 34567.7 hPa WNW 77.4 km/h 77.4 km/h 78 % 0 mm 0.0 W/m2 CLR
01:36 -14 °C -16 °C 34577.8 hPa WNW 68.6 km/h 68.6 km/h 78 % 0 mm 0.0 W/m2 CLR
01:41 -14 °C -16.1 °C 34577.8 hPa WNW 83.4 km/h 83.4 km/h 77 % 0 mm 0.0 W/m2 CLR
01:46 -14 °C -16.1 °C 34577.8 hPa WNW 68.6 km/h 68.6 km/h 77 % 0 mm 0.0 W/m2 CLR
01:51 -14 °C -16.1 °C 34577.8 hPa WNW 56.6 km/h 56.6 km/h 77 % 0 mm 0.0 W/m2 CLR
01:56 -14.1 °C -16.2 °C 34591.4 hPa WNW 50.7 km/h 50.7 km/h 77 % 0 mm 0.0 W/m2 CLR
02:01 -14.1 °C -16.2 °C 34577.8 hPa WNW 57 km/h 57 km/h 77 % 0 mm 0.0 W/m2 CLR
02:06 -14.1 °C -16.2 °C 34577.8 hPa WNW 80.5 km/h 80.5 km/h 76 % 0 mm 0.0 W/m2 CLR
02:11 -14.1 °C -16.3 °C 34577.8 hPa WNW 80.5 km/h 80.5 km/h 76 % 0 mm 0.0 W/m2 CLR
02:16 -14.1 °C -16.3 °C 34577.8 hPa WNW 59.5 km/h 59.5 km/h 76 % 0 mm 0.0 W/m2 CLR
02:21 -14.2 °C -16.2 °C 34567.7 hPa WNW 68.6 km/h 68.6 km/h 77 % 0 mm 0.0 W/m2 CLR
02:26 -14.2 °C -16.3 °C 34577.8 hPa WNW 95.3 km/h 95.3 km/h 77 % 0 mm 0.0 W/m2 CLR
02:31 -14.2 °C -16.3 °C 34567.7 hPa WNW 71.5 km/h 71.5 km/h 77 % 0 mm 0.0 W/m2
02:36 -14.3 °C -16.3 °C 34567.7 hPa WNW 71.5 km/h 71.5 km/h 77 % 0 mm 0.0 W/m2 CLR
02:41 -14.3 °C -16.4 °C 34567.7 hPa WNW 89.3 km/h 89.3 km/h 76 % 0 mm 0.0 W/m2
02:46 -14.3 °C -16.3 °C 34567.7 hPa NW 83.4 km/h 83.4 km/h 77 % 0 mm 0.0 W/m2 CLR
02:51 -14.3 °C -16.5 °C 34567.7 hPa NW 89.3 km/h 89.3 km/h 76 % 0 mm 0.0 W/m2 CLR
02:56 -14.3 °C -16.5 °C 34567.7 hPa WNW 83.4 km/h 83.4 km/h 76 % 0 mm 0.0 W/m2
03:01 -14.3 °C -16.5 °C 34567.7 hPa WNW 80.5 km/h 80.5 km/h 76 % 0 mm 0.0 W/m2
03:06 -14.4 °C -16.6 °C 34567.7 hPa NW 86.4 km/h 86.4 km/h 76 % 0 mm 0.0 W/m2 CLR
03:11 -14.4 °C -16.6 °C 34567.7 hPa NW 89.3 km/h 89.3 km/h 76 % 0 mm 0.0 W/m2 CLR
03:16 -14.4 °C -16.6 °C 34577.8 hPa NW 98.3 km/h 98.3 km/h 76 % 0 mm 0.0 W/m2
03:21 -14.4 °C -16.6 °C 34577.8 hPa WNW 95.3 km/h 95.3 km/h 76 % 0 mm 0.0 W/m2
03:26 -14.5 °C -16.7 °C 34577.8 hPa WNW 86.4 km/h 86.4 km/h 76 % 0 mm 0.0 W/m2 CLR
03:31 -14.6 °C -16.7 °C 34577.8 hPa WNW 101.2 km/h 101.2 km/h 76 % 0 mm 0.0 W/m2 CLR
03:36 -14.6 °C -16.8 °C 34591.4 hPa NW 98.3 km/h 98.3 km/h 75 % 0 mm 0.0 W/m2 CLR
03:41 -14.6 °C -16.9 °C 34591.4 hPa WNW 67.3 km/h 67.3 km/h 75 % 0 mm 0.0 W/m2 CLR
03:46 -14.6 °C -17 °C 34591.4 hPa NW 83.4 km/h 83.4 km/h 74 % 0 mm 0.0 W/m2 CLR
03:51 -14.7 °C -17.1 °C 34591.4 hPa NW 56.6 km/h 59.5 km/h 74 % 0 mm 0.0 W/m2 CLR
03:56 -14.6 °C -17 °C 34577.8 hPa NW 68.6 km/h 68.6 km/h 74 % 0 mm 0.0 W/m2 CLR
04:02 -14.6 °C -17 °C 34577.8 hPa WNW 86.4 km/h 86.4 km/h 74 % 0 mm 0.0 W/m2 CLR
04:07 -14.6 °C -17 °C 34567.7 hPa WNW 89.3 km/h 89.3 km/h 74 % 0 mm 0.0 W/m2 CLR
04:12 -14.7 °C -17.1 °C 34554.1 hPa WNW 89.3 km/h 89.3 km/h 74 % 0 mm 0.0 W/m2 CLR
04:17 -14.7 °C -17.1 °C 34554.1 hPa WNW 86.4 km/h 86.4 km/h 74 % 0 mm 0.0 W/m2 CLR
04:22 -14.7 °C -17.1 °C 34554.1 hPa WNW 83.4 km/h 83.4 km/h 74 % 0 mm 0.0 W/m2 CLR
04:27 -14.7 °C -17 °C 34554.1 hPa WNW 83.4 km/h 83.4 km/h 75 % 0 mm 0.0 W/m2 CLR
04:32 -14.7 °C -17.1 °C 34554.1 hPa WNW 77.4 km/h 77.4 km/h 74 % 0 mm 0.0 W/m2 CLR
04:37 -14.7 °C -17.1 °C 34554.1 hPa WNW 89.3 km/h 89.3 km/h 74 % 0 mm 0.0 W/m2 CLR
04:42 -14.8 °C -17.1 °C 34554.1 hPa NW 77.4 km/h 77.4 km/h 74 % 0 mm 0.0 W/m2 CLR
04:47 -14.8 °C -17.1 °C 34554.1 hPa NW 72.6 km/h 72.6 km/h 75 % 0 mm 0.0 W/m2 CLR
04:52 -14.8 °C -17.1 °C 34554.1 hPa NW 86.4 km/h 86.4 km/h 75 % 0 mm 0.0 W/m2 CLR
04:57 -14.8 °C -17.1 °C 34554.1 hPa NW 64.7 km/h 64.7 km/h 75 % 0 mm 0.0 W/m2 CLR
05:02 -14.8 °C -17.1 °C 34554.1 hPa NW 56.6 km/h 56.6 km/h 75 % 0 mm 0.0 W/m2 CLR
05:07 -14.9 °C -17.1 °C 34544 hPa NW 75.2 km/h 75.2 km/h 75 % 0 mm 0.0 W/m2 CLR
05:12 -14.9 °C -17.1 °C 34554.1 hPa NW 68.6 km/h 68.6 km/h 76 % 0 mm 0.0 W/m2 CLR
05:17 -14.9 °C -17.1 °C 34554.1 hPa NW 89.3 km/h 89.3 km/h 76 % 0 mm 0.0 W/m2
05:22 -14.9 °C -17.1 °C 34554.1 hPa NW 80.5 km/h 80.5 km/h 76 % 0 mm 0.0 W/m2 CLR
05:27 -14.9 °C -17.1 °C 34567.7 hPa NW 71.5 km/h 71.5 km/h 76 % 0 mm 0.0 W/m2 CLR
05:32 -14.9 °C -17.1 °C 34567.7 hPa NW 74.5 km/h 74.5 km/h 76 % 0 mm 0.0 W/m2 CLR
05:37 -14.9 °C -17.1 °C 34567.7 hPa NW 62.6 km/h 62.6 km/h 76 % 0 mm 0.0 W/m2 CLR
05:42 -14.9 °C -17.1 °C 34567.7 hPa WNW 62.6 km/h 62.6 km/h 76 % 0 mm 0.0 W/m2
05:47 -14.9 °C -17.1 °C 34567.7 hPa NW 71.5 km/h 71.5 km/h 76 % 0 mm 0.0 W/m2 CLR
05:52 -14.9 °C -17.1 °C 34567.7 hPa NW 80.5 km/h 80.5 km/h 76 % 0 mm 0.0 W/m2 CLR
05:57 -14.9 °C -17.1 °C 34567.7 hPa NW 86.4 km/h 86.4 km/h 77 % 0 mm 0.0 W/m2 CLR
06:02 -14.9 °C -17.1 °C 34567.7 hPa NW 86.4 km/h 86.4 km/h 76 % 0 mm 0.0 W/m2 CLR
06:07 -15 °C -17.1 °C 34554.1 hPa WNW 86.4 km/h 86.4 km/h 77 % 0 mm 0.0 W/m2 CLR
06:12 -15.1 °C -17.1 °C 34567.7 hPa NW 59.5 km/h 59.5 km/h 77 % 0 mm 0.0 W/m2 CLR
06:17 -15.1 °C -17 °C 34567.7 hPa NW 65.5 km/h 65.5 km/h 78 % 0 mm 0.0 W/m2 CLR
06:22 -15.1 °C -17 °C 34554.1 hPa WNW 68.6 km/h 68.6 km/h 78 % 0 mm 0.0 W/m2 CLR
06:27 -15.1 °C -17 °C 34554.1 hPa WNW 89.3 km/h 89.3 km/h 78 % 0 mm 0.0 W/m2
06:32 -15.1 °C -17.1 °C 34544 hPa WNW 92.4 km/h 92.4 km/h 78 % 0 mm 0.0 W/m2 CLR
06:37 -15.1 °C -17.1 °C 34554.1 hPa NW 80.5 km/h 80.5 km/h 78 % 0 mm 0.0 W/m2
06:42 -15.1 °C -17.1 °C 34554.1 hPa NW 68.6 km/h 68.6 km/h 78 % 0 mm 0.0 W/m2 CLR
06:47 -15.2 °C -17.1 °C 34554.1 hPa NW 92.4 km/h 92.4 km/h 78 % 0 mm 0.0 W/m2 CLR
06:52 -15.1 °C -17.1 °C 34554.1 hPa WNW 86.4 km/h 86.4 km/h 78 % 0 mm 0.0 W/m2 CLR
06:57 -15.1 °C -17.1 °C 34554.1 hPa NW 74.5 km/h 74.5 km/h 78 % 0 mm 0.0 W/m2 CLR
07:02 -15.1 °C -17.1 °C 34554.1 hPa WNW 68.6 km/h 68.6 km/h 78 % 0 mm 0.0 W/m2 CLR
07:07 -15.1 °C -17.1 °C 34554.1 hPa NW 89.3 km/h 89.3 km/h 78 % 0 mm 0.0 W/m2 CLR
07:12 -15.1 °C -17.1 °C 34567.7 hPa NW 80.3 km/h 80.3 km/h 78 % 0 mm 0.0 W/m2 CLR
07:17 -15.1 °C -17.1 °C 34567.7 hPa NW 95.8 km/h 95.8 km/h 78 % 0 mm 0.0 W/m2 CLR
07:22 -15.1 °C -17.1 °C 34567.7 hPa NW 68.6 km/h 68.6 km/h 78 % 0 mm 0.0 W/m2 CLR
07:27 -15.2 °C -17.1 °C 34567.7 hPa NW 89.3 km/h 89.3 km/h 78 % 0 mm 0.0 W/m2 CLR
07:32 -15.2 °C -17.1 °C 34577.8 hPa NW 92.4 km/h 92.4 km/h 78 % 0 mm 0.0 W/m2 CLR
07:37 -15.2 °C -17.1 °C 34577.8 hPa NW 71.5 km/h 71.5 km/h 78 % 0 mm 0.0 W/m2 CLR
07:42 -15.2 °C -17 °C 34591.4 hPa NW 53.6 km/h 53.6 km/h 79 % 0 mm 0.0 W/m2 CLR
07:47 -15.2 °C -17.1 °C 34591.4 hPa NW 69.8 km/h 69.8 km/h 79 % 0 mm 0.0 W/m2 CLR
07:52 -15.2 °C -17.1 °C 34591.4 hPa NW 51.8 km/h 51.8 km/h 79 % 0 mm 0.0 W/m2 CLR
07:57 -15.2 °C -17.1 °C 34591.4 hPa NW 86.4 km/h 86.4 km/h 79 % 0 mm 0.0 W/m2 CLR
08:02 -15.2 °C -17.1 °C 34591.4 hPa NW 68.6 km/h 68.6 km/h 79 % 0 mm 0.0 W/m2 OVC
08:07 -15.2 °C -17.1 °C 34591.4 hPa WNW 86.4 km/h 86.4 km/h 79 % 0 mm 0.0 W/m2 OVC
08:12 -15.2 °C -17.1 °C 34591.4 hPa WNW 71.5 km/h 71.5 km/h 79 % 0 mm 5.0 W/m2 OVC
08:17 -15.2 °C -17.1 °C 34601.5 hPa NW 62.6 km/h 62.6 km/h 79 % 0 mm 7.0 W/m2 BKN
08:22 -15.2 °C -17.1 °C 34601.5 hPa NW 101.2 km/h 101.2 km/h 79 % 0 mm 9.0 W/m2 BKN
08:27 -15.2 °C -17 °C 34601.5 hPa WNW 65.5 km/h 65.5 km/h 80 % 0 mm 11.0 W/m2 BKN
08:32 -15.2 °C -17 °C 34611.7 hPa NW 86.4 km/h 86.4 km/h 80 % 0 mm 12.0 W/m2 BKN
08:37 -15.2 °C -17 °C 34601.5 hPa NW 89.3 km/h 89.3 km/h 80 % 0 mm 18.0 W/m2 BKN
08:42 -15.2 °C -16.9 °C 34611.7 hPa NW 89.3 km/h 89.3 km/h 81 % 0 mm 26.0 W/m2 BKN
08:47 -15.2 °C -17 °C 34625.2 hPa NW 68.6 km/h 68.6 km/h 80 % 0 mm 40.0 W/m2 SCT
08:52 -15.2 °C -16.9 °C 34625.2 hPa NW 64.7 km/h 64.7 km/h 80 % 0 mm 42.0 W/m2 BKN
08:57 -15.1 °C -16.9 °C 34625.2 hPa NW 89.3 km/h 89.3 km/h 80 % 0 mm 67.0 W/m2 FEW
09:02 -15.1 °C -16.9 °C 34625.2 hPa NW 83.4 km/h 83.4 km/h 79 % 0 mm 72.0 W/m2 FEW
09:07 -15.1 °C -16.9 °C 34625.2 hPa NW 83.4 km/h 83.4 km/h 79 % 0 mm 69.0 W/m2 FEW
09:12 -15 °C -16.8 °C 34625.2 hPa NW 75.2 km/h 75.2 km/h 80 % 0 mm 74.0 W/m2 FEW
09:17 -15 °C -16.8 °C 34625.2 hPa NW 89.3 km/h 89.3 km/h 80 % 0 mm 104.0 W/m2 FEW
09:22 -15 °C -16.8 °C 34635.4 hPa NW 98.3 km/h 98.3 km/h 80 % 0 mm 104.0 W/m2 FEW
09:23 -15 °C -16.8 °C 34625.2 hPa NW 98.3 km/h 98.3 km/h 80 % 0 mm 104.0 W/m2 FEW
09:28 -15 °C -16.8 °C 34635.4 hPa NW 74.5 km/h 74.5 km/h 80 % 0 mm 130.0 W/m2 CLR
09:33 -14.9 °C -16.7 °C 34635.4 hPa NW 83.4 km/h 83.4 km/h 80 % 0 mm 149.0 W/m2 CLR
09:38 -14.9 °C -16.7 °C 34635.4 hPa NW 77.4 km/h 77.4 km/h 80 % 0 mm 111.0 W/m2 CLR
09:43 -14.9 °C -16.6 °C 34635.4 hPa NW 80.5 km/h 80.5 km/h 81 % 0 mm 118.0 W/m2 CLR
09:48 -14.9 °C -16.6 °C 34635.4 hPa NW 65.5 km/h 65.5 km/h 81 % 0 mm 123.0 W/m2 CLR
09:53 -14.9 °C -16.6 °C 34625.2 hPa NW 77.4 km/h 77.4 km/h 81 % 0 mm 192.0 W/m2 CLR
09:58 -14.8 °C -16.6 °C 34635.4 hPa NW 89.3 km/h 89.3 km/h 80 % 0 mm 167.0 W/m2 CLR
10:03 -14.8 °C -16.6 °C 34635.4 hPa NW 68.6 km/h 68.6 km/h 80 % 0 mm 450.0 W/m2 CLR
10:08 -14.7 °C -16.5 °C 34635.4 hPa NW 89.3 km/h 89.3 km/h 80 % 0 mm 218.0 W/m2 CLR
10:13 -14.7 °C -16.4 °C 34625.2 hPa NW 101.2 km/h 101.2 km/h 80 % 0 mm 211.0 W/m2 CLR
10:18 -14.7 °C -16.4 °C 34635.4 hPa NW 80.5 km/h 80.5 km/h 80 % 0 mm 274.0 W/m2 CLR
10:23 -14.6 °C -16.3 °C 34625.2 hPa NW 80.5 km/h 80.5 km/h 80 % 0 mm 429.0 W/m2 CLR
10:28 -14.5 °C -16.3 °C 34625.2 hPa NW 56.6 km/h 56.6 km/h 80 % 0 mm 299.0 W/m2 CLR
10:33 -14.4 °C -16.3 °C 34635.4 hPa NW 92.4 km/h 92.4 km/h 79 % 0 mm 396.0 W/m2 CLR
10:38 -14.4 °C -16.3 °C 34625.2 hPa NW 74.5 km/h 74.5 km/h 78 % 0 mm 401.0 W/m2 CLR
10:43 -14.3 °C -16.4 °C 34625.2 hPa NW 89.3 km/h 89.3 km/h 77 % 0 mm 427.0 W/m2 CLR
10:48 -14.2 °C -16.2 °C 34635.4 hPa NW 77.4 km/h 77.4 km/h 78 % 0 mm 471.0 W/m2 CLR
10:53 -14.1 °C -16.2 °C 34635.4 hPa NNW 89.3 km/h 89.3 km/h 77 % 0 mm 454.0 W/m2 CLR
10:58 -14.1 °C -16.3 °C 34625.2 hPa NNW 89.3 km/h 89.3 km/h 76 % 0 mm 429.0 W/m2 CLR
11:03 -14 °C -16.1 °C 34625.2 hPa NW 68.6 km/h 68.6 km/h 77 % 0 mm 434.0 W/m2 CLR
11:08 -13.9 °C -16.1 °C 34625.2 hPa NW 77.4 km/h 77.4 km/h 76 % 0 mm 441.0 W/m2 CLR
11:13 -13.8 °C -16.1 °C 34625.2 hPa NW 89.3 km/h 89.3 km/h 75 % 0 mm 455.0 W/m2 CLR
11:18 -13.7 °C -16.2 °C 34625.2 hPa NW 86.4 km/h 86.4 km/h 73 % 0 mm 464.0 W/m2 CLR
11:23 -13.7 °C -16.2 °C 34625.2 hPa NW 83.4 km/h 83.4 km/h 73 % 0 mm 468.0 W/m2 CLR
11:28 -13.7 °C -16.2 °C 34625.2 hPa NW 89.3 km/h 89.3 km/h 73 % 0 mm 485.0 W/m2 CLR
11:33 -13.6 °C -16.1 °C 34625.2 hPa NW 74.5 km/h 74.5 km/h 73 % 0 mm 522.0 W/m2 CLR
11:38 -13.4 °C -16 °C 34625.2 hPa NW 62.6 km/h 62.6 km/h 73 % 0 mm 538.0 W/m2 CLR
11:43 -13.4 °C -16.2 °C 34625.2 hPa NW 89.3 km/h 89.3 km/h 70 % 0 mm 508.0 W/m2 CLR
11:48 -13.4 °C -16.2 °C 34625.2 hPa NW 92.4 km/h 92.4 km/h 70 % 0 mm 515.0 W/m2 CLR
11:53 -13.3 °C -16.2 °C 34635.4 hPa NW 71.5 km/h 71.5 km/h 70 % 0 mm 554.0 W/m2 CLR
11:58 -13.2 °C -16.2 °C 34635.4 hPa NW 77.7 km/h 77.7 km/h 69 % 0 mm 536.0 W/m2 CLR
12:03 -13.3 °C -16.2 °C 34635.4 hPa NNW 65.5 km/h 65.5 km/h 69 % 0 mm 540.0 W/m2 CLR
12:08 -13.2 °C -16.2 °C 34625.2 hPa NNW 98.3 km/h 98.3 km/h 69 % 0 mm 540.0 W/m2 CLR
12:13 -13.2 °C -16.2 °C 34625.2 hPa NW 74.5 km/h 74.5 km/h 69 % 0 mm 573.0 W/m2 CLR
12:18 -13.1 °C -16.1 °C 34625.2 hPa NW 95.3 km/h 95.3 km/h 69 % 0 mm 575.0 W/m2 CLR
12:23 -13.1 °C -16.2 °C 34625.2 hPa NW 89.3 km/h 89.3 km/h 68 % 0 mm 575.0 W/m2 CLR
12:28 -13 °C -16.2 °C 34625.2 hPa NW 83.4 km/h 83.4 km/h 67 % 0 mm 561.0 W/m2 CLR
12:33 -13 °C -16.2 °C 34625.2 hPa NW 56.6 km/h 56.6 km/h 67 % 0 mm 578.0 W/m2 CLR
12:38 -12.9 °C -16.2 °C 34611.7 hPa NW 92.4 km/h 92.4 km/h 67 % 0 mm 570.0 W/m2 CLR
12:43 -12.9 °C -16.1 °C 34611.7 hPa NW 89.3 km/h 89.3 km/h 68 % 0 mm 563.0 W/m2 CLR
12:48 -13 °C -16.2 °C 34611.7 hPa NW 107.2 km/h 107.2 km/h 67 % 0 mm 564.0 W/m2 CLR
12:53 -12.9 °C -16.1 °C 34611.7 hPa NW 80.5 km/h 80.5 km/h 67 % 0 mm 563.0 W/m2 CLR
12:58 -12.9 °C -16.3 °C 34611.7 hPa NW 89.3 km/h 89.3 km/h 65 % 0 mm 563.0 W/m2 CLR
13:03 -12.7 °C -16.2 °C 34601.5 hPa NW 98.3 km/h 98.3 km/h 65 % 0 mm 566.0 W/m2 CLR
13:08 -12.8 °C -16.4 °C 34601.5 hPa NW 86.4 km/h 86.4 km/h 64 % 0 mm 566.0 W/m2 CLR
13:13 -12.7 °C -16.1 °C 34601.5 hPa NNW 75.2 km/h 75.2 km/h 66 % 0 mm 566.0 W/m2 CLR
13:18 -12.7 °C -16.4 °C 34601.5 hPa NW 95.3 km/h 95.3 km/h 63 % 0 mm 566.0 W/m2 CLR
13:23 -12.7 °C -16.5 °C 34611.7 hPa NW 89.3 km/h 89.3 km/h 62 % 0 mm 568.0 W/m2 CLR
13:28 -12.5 °C -16.3 °C 34601.5 hPa NNW 69.8 km/h 69.8 km/h 62 % 0 mm 566.0 W/m2 CLR
13:33 -12.4 °C -16.6 °C 34601.5 hPa NNW 86.4 km/h 86.4 km/h 60 % 0 mm 564.0 W/m2 CLR
13:38 -12.4 °C -16.6 °C 34611.7 hPa NNW 98.3 km/h 98.3 km/h 60 % 0 mm 563.0 W/m2 CLR
13:43 -12.4 °C -16.3 °C 34601.5 hPa NNW 68.6 km/h 68.6 km/h 62 % 0 mm 563.0 W/m2 CLR
13:48 -12.4 °C -16.7 °C 34611.7 hPa NNW 89.3 km/h 89.3 km/h 59 % 0 mm 566.0 W/m2 CLR
13:53 -12.4 °C -16.6 °C 34611.7 hPa NNW 80.5 km/h 80.5 km/h 60 % 0 mm 559.0 W/m2 CLR
13:58 -12.4 °C -16.4 °C 34611.7 hPa NNW 86.4 km/h 86.4 km/h 61 % 0 mm 555.0 W/m2 CLR
14:03 -12.4 °C -16.4 °C 34611.7 hPa NW 106.2 km/h 106.2 km/h 61 % 0 mm 548.0 W/m2 CLR
14:08 -12.5 °C -16.6 °C 34611.7 hPa NNW 104.3 km/h 104.3 km/h 60 % 0 mm 547.0 W/m2 CLR
14:13 -12.4 °C -16.5 °C 34601.5 hPa NW 71.5 km/h 71.5 km/h 60 % 0 mm 543.0 W/m2 CLR
14:18 -12.3 °C -16.6 °C 34601.5 hPa NNW 92.4 km/h 92.4 km/h 59 % 0 mm 538.0 W/m2 CLR
14:23 -12.3 °C -16.6 °C 34601.5 hPa NW 89.3 km/h 89.3 km/h 59 % 0 mm 534.0 W/m2 CLR
14:28 -12.3 °C -16.6 °C 34601.5 hPa NW 92.4 km/h 92.4 km/h 59 % 0 mm 526.0 W/m2 CLR
14:33 -12.3 °C -16.3 °C 34601.5 hPa NW 83.4 km/h 83.4 km/h 61 % 0 mm 520.0 W/m2 CLR
14:39 -12.3 °C -16.6 °C 34591.4 hPa NW 107.2 km/h 107.2 km/h 59 % 0 mm 513.0 W/m2 CLR
14:43 -12.3 °C -16.6 °C 34591.4 hPa NW 77.4 km/h 77.4 km/h 59 % 0 mm 508.0 W/m2 CLR
14:49 -12.2 °C -16.7 °C 34601.5 hPa NW 92.4 km/h 92.4 km/h 57 % 0 mm 501.0 W/m2 CLR
14:54 -12.1 °C -16.4 °C 34591.4 hPa NW 59.5 km/h 59.5 km/h 59 % 0 mm 494.0 W/m2 CLR
14:59 -12.1 °C -16.8 °C 34601.5 hPa NW 101.1 km/h 101.1 km/h 56 % 0 mm 489.0 W/m2 CLR
15:04 -12.1 °C -16.9 °C 34591.4 hPa NW 86.4 km/h 86.4 km/h 55 % 0 mm 478.0 W/m2 CLR
15:09 -12.1 °C -17.1 °C 34601.5 hPa NW 83.4 km/h 83.4 km/h 54 % 0 mm 469.0 W/m2 CLR
15:14 -12.1 °C -17.3 °C 34601.5 hPa NW 89.3 km/h 89.3 km/h 52 % 0 mm 462.0 W/m2 CLR
15:19 -12.1 °C -17.1 °C 34591.4 hPa NW 68.6 km/h 68.6 km/h 53 % 0 mm 452.0 W/m2 CLR
15:24 -12 °C -17.3 °C 34601.5 hPa NW 89.3 km/h 89.3 km/h 52 % 0 mm 445.0 W/m2 CLR
15:29 -11.9 °C -17.3 °C 34591.4 hPa NW 92.4 km/h 92.4 km/h 51 % 0 mm 431.0 W/m2 CLR
15:34 -11.9 °C -17.3 °C 34591.4 hPa NW 77.4 km/h 77.4 km/h 51 % 0 mm 420.0 W/m2 CLR
15:39 -11.8 °C -17.1 °C 34601.5 hPa NW 62.6 km/h 62.6 km/h 52 % 0 mm 411.0 W/m2 CLR
15:44 -11.9 °C -17 °C 34591.4 hPa NW 83.4 km/h 83.4 km/h 53 % 0 mm 399.0 W/m2 CLR
15:49 -12 °C -17 °C 34591.4 hPa NW 71.5 km/h 71.5 km/h 54 % 0 mm 392.0 W/m2 CLR
15:54 -12.1 °C -16.9 °C 34601.5 hPa NW 104.3 km/h 104.3 km/h 55 % 0 mm 376.0 W/m2 CLR
15:59 -12.1 °C -16.6 °C 34601.5 hPa NW 71.5 km/h 71.5 km/h 57 % 0 mm 373.0 W/m2 CLR
16:04 -12.1 °C -16.5 °C 34601.5 hPa NW 56.6 km/h 56.6 km/h 58 % 0 mm 359.0 W/m2 CLR
16:09 -12.2 °C -16.6 °C 34601.5 hPa NW 80.5 km/h 80.5 km/h 58 % 0 mm 364.0 W/m2 CLR
16:14 -12.2 °C -16.6 °C 34601.5 hPa NW 65.5 km/h 65.5 km/h 58 % 0 mm 330.0 W/m2 CLR
16:19 -12.3 °C -16.6 °C 34601.5 hPa NW 86.4 km/h 86.4 km/h 59 % 0 mm 339.0 W/m2 CLR
16:24 -12.4 °C -16.5 °C 34601.5 hPa NNW 59.5 km/h 59.5 km/h 60 % 0 mm 311.0 W/m2 CLR
16:29 -12.3 °C -16.4 °C 34601.5 hPa NW 80.5 km/h 80.5 km/h 60 % 0 mm 295.0 W/m2 CLR
16:34 -12.3 °C -16.6 °C 34601.5 hPa NW 62.6 km/h 62.6 km/h 59 % 0 mm 276.0 W/m2 CLR
16:39 -12.3 °C -16.6 °C 34611.7 hPa NW 80.5 km/h 80.5 km/h 59 % 0 mm 260.0 W/m2 CLR
16:44 -12.4 °C -16.8 °C 34601.5 hPa NW 86.4 km/h 86.4 km/h 58 % 0 mm 246.0 W/m2 CLR
16:49 -12.5 °C -16.7 °C 34601.5 hPa NW 98.3 km/h 98.3 km/h 59 % 0 mm 230.0 W/m2 CLR
16:54 -12.6 °C -16.7 °C 34601.5 hPa NW 86.4 km/h 86.4 km/h 60 % 0 mm 209.0 W/m2 CLR
16:59 -12.6 °C -16.8 °C 34601.5 hPa NW 77.4 km/h 77.4 km/h 59 % 0 mm 193.0 W/m2 CLR
17:04 -12.6 °C -16.7 °C 34601.5 hPa NW 80.5 km/h 80.5 km/h 60 % 0 mm 176.0 W/m2 CLR
17:09 -12.6 °C -16.7 °C 34601.5 hPa NW 75.2 km/h 75.2 km/h 60 % 0 mm 162.0 W/m2 CLR
17:14 -12.6 °C -16.6 °C 34601.5 hPa NW 67.3 km/h 67.3 km/h 61 % 0 mm 141.0 W/m2 CLR
17:19 -12.7 °C -16.6 °C 34601.5 hPa NW 62.6 km/h 62.6 km/h 61 % 0 mm 127.0 W/m2 CLR
17:24 -12.7 °C -16.6 °C 34601.5 hPa NW 71.5 km/h 71.5 km/h 62 % 0 mm 109.0 W/m2 CLR
17:29 -12.8 °C -16.8 °C 34601.5 hPa NW 80.5 km/h 80.5 km/h 60 % 0 mm 97.0 W/m2 CLR
17:34 -12.8 °C -16.9 °C 34591.4 hPa NW 89.3 km/h 89.3 km/h 60 % 0 mm 79.0 W/m2 FEW
17:39 -12.9 °C -16.8 °C 34601.5 hPa NW 95.3 km/h 95.3 km/h 61 % 0 mm 28.0 W/m2 BKN
17:44 -12.9 °C -16.9 °C 34601.5 hPa NW 74.5 km/h 74.5 km/h 61 % 0 mm 46.0 W/m2 SCT
17:49 -12.9 °C -16.7 °C 34601.5 hPa NW 77.4 km/h 77.4 km/h 63 % 0 mm 21.0 W/m2 BKN
17:54 -13 °C -16.5 °C 34601.5 hPa NW 82.9 km/h 82.9 km/h 65 % 0 mm 19.0 W/m2 BKN
17:59 -13.1 °C -16.4 °C 34601.5 hPa NW 86.4 km/h 86.4 km/h 66 % 0 mm 18.0 W/m2 BKN
18:04 -13.2 °C -16.3 °C 34611.7 hPa NW 80.3 km/h 80.3 km/h 67 % 0 mm 14.0 W/m2 BKN
18:09 -13.2 °C -16.3 °C 34601.5 hPa NW 80.5 km/h 80.5 km/h 68 % 0 mm 12.0 W/m2 BKN
18:14 -13.3 °C -16.3 °C 34611.7 hPa NW 77.4 km/h 77.4 km/h 69 % 0 mm 9.0 W/m2 BKN
18:19 -13.4 °C -16.4 °C 34611.7 hPa NW 68.6 km/h 68.6 km/h 68 % 0 mm 7.0 W/m2 BKN
18:24 -13.4 °C -16.5 °C 34611.7 hPa NW 86.4 km/h 86.4 km/h 68 % 0 mm 5.0 W/m2 OVC
18:29 -13.4 °C -16.5 °C 34611.7 hPa NW 89.3 km/h 89.3 km/h 68 % 0 mm 0.0 W/m2 OVC
18:34 -13.4 °C -16.6 °C 34625.2 hPa NW 77.4 km/h 77.4 km/h 68 % 0 mm 0.0 W/m2 OVC
18:39 -13.5 °C -16.6 °C 34625.2 hPa NW 86.4 km/h 86.4 km/h 68 % 0 mm 0.0 W/m2 CLR
18:44 -13.6 °C -16.7 °C 34625.2 hPa NW 71.5 km/h 71.5 km/h 68 % 0 mm 0.0 W/m2 CLR
18:49 -13.6 °C -16.6 °C 34625.2 hPa NW 68.6 km/h 68.6 km/h 69 % 0 mm 0.0 W/m2 CLR
18:54 -13.7 °C -16.5 °C 34625.2 hPa NW 80.5 km/h 80.5 km/h 70 % 0 mm 0.0 W/m2 CLR
18:59 -13.7 °C -16.4 °C 34635.4 hPa NW 71.5 km/h 71.5 km/h 71 % 0 mm 0.0 W/m2 CLR
19:04 -13.7 °C -16.4 °C 34635.4 hPa NW 92.4 km/h 92.4 km/h 71 % 0 mm 0.0 W/m2
19:09 -13.8 °C -16.4 °C 34635.4 hPa NW 74.5 km/h 74.5 km/h 72 % 0 mm 0.0 W/m2 CLR
19:14 -13.8 °C -16.5 °C 34635.4 hPa NW 89.3 km/h 89.3 km/h 71 % 0 mm 0.0 W/m2
19:19 -13.8 °C -16.5 °C 34635.4 hPa NW 77.4 km/h 77.4 km/h 71 % 0 mm 0.0 W/m2 CLR
19:24 -13.8 °C -16.6 °C 34645.6 hPa NW 83.4 km/h 83.4 km/h 71 % 0 mm 0.0 W/m2 CLR
19:29 -13.8 °C -16.6 °C 34645.6 hPa NW 75.2 km/h 75.2 km/h 71 % 0 mm 0.0 W/m2 CLR
19:34 -13.9 °C -16.6 °C 34645.6 hPa NW 74.5 km/h 74.5 km/h 71 % 0 mm 0.0 W/m2 CLR
19:39 -13.9 °C -16.6 °C 34659.1 hPa NW 89.3 km/h 89.3 km/h 71 % 0 mm 0.0 W/m2 CLR
19:44 -13.9 °C -16.6 °C 34659.1 hPa NW 82.9 km/h 82.9 km/h 71 % 0 mm 0.0 W/m2 CLR
19:49 -13.9 °C -16.7 °C 34659.1 hPa NW 86.4 km/h 86.4 km/h 71 % 0 mm 0.0 W/m2 CLR
19:54 -14 °C -16.7 °C 34659.1 hPa NW 77.4 km/h 77.4 km/h 71 % 0 mm 0.0 W/m2 CLR
19:59 -14 °C -16.7 °C 34669.3 hPa NW 74.5 km/h 74.5 km/h 71 % 0 mm 0.0 W/m2 CLR
20:04 -14 °C -16.8 °C 34669.3 hPa NW 72.6 km/h 72.6 km/h 70 % 0 mm 0.0 W/m2 CLR
20:09 -14 °C -16.8 °C 34669.3 hPa NW 83.4 km/h 83.4 km/h 70 % 0 mm 0.0 W/m2 CLR
20:14 -14 °C -16.7 °C 34669.3 hPa NW 83.4 km/h 83.4 km/h 71 % 0 mm 0.0 W/m2 CLR
20:19 -14.1 °C -16.8 °C 34669.3 hPa NW 88 km/h 88 km/h 71 % 0 mm 0.0 W/m2 CLR
20:24 -14.1 °C -16.8 °C 34682.8 hPa NW 80.5 km/h 80.5 km/h 71 % 0 mm 0.0 W/m2 CLR
20:29 -14.1 °C -16.8 °C 34682.8 hPa NW 62.6 km/h 62.6 km/h 71 % 0 mm 0.0 W/m2 CLR
20:34 -14.1 °C -16.7 °C 34682.8 hPa NW 59.5 km/h 59.5 km/h 72 % 0 mm 0.0 W/m2 CLR
20:39 -14.1 °C -16.6 °C 34682.8 hPa NW 74.5 km/h 74.5 km/h 73 % 0 mm 0.0 W/m2 CLR
20:44 -14.2 °C -16.6 °C 34669.3 hPa NW 86.4 km/h 86.4 km/h 74 % 0 mm 0.0 W/m2 CLR
20:49 -14.2 °C -16.5 °C 34669.3 hPa NW 75.2 km/h 75.2 km/h 75 % 0 mm 0.0 W/m2 CLR
20:54 -14.2 °C -16.5 °C 34682.8 hPa NNW 74.5 km/h 74.5 km/h 75 % 0 mm 0.0 W/m2 CLR
20:59 -14.2 °C -16.5 °C 34682.8 hPa NNW 86.4 km/h 86.4 km/h 75 % 0 mm 0.0 W/m2 CLR
21:04 -14.3 °C -16.6 °C 34682.8 hPa NW 68.6 km/h 68.6 km/h 75 % 0 mm 0.0 W/m2 CLR
21:09 -14.2 °C -16.5 °C 34682.8 hPa NNW 86.4 km/h 86.4 km/h 75 % 0 mm 0.0 W/m2 CLR
21:14 -14.3 °C -16.6 °C 34682.8 hPa NNW 72.6 km/h 72.6 km/h 75 % 0 mm 0.0 W/m2 CLR
21:20 -14.3 °C -16.6 °C 34682.8 hPa NNW 92.4 km/h 92.4 km/h 75 % 0 mm 0.0 W/m2
21:22 -14.3 °C -16.6 °C 34682.8 hPa NNW 71.5 km/h 71.5 km/h 75 % 0 mm 0.0 W/m2 CLR
21:27 -14.3 °C -16.6 °C 34682.8 hPa NW 71.5 km/h 71.5 km/h 75 % 0 mm 0.0 W/m2 CLR
21:32 -14.4 °C -16.6 °C 34682.8 hPa NW 83.4 km/h 83.4 km/h 76 % 0 mm 0.0 W/m2 CLR
21:37 -14.4 °C -16.6 °C 34682.8 hPa NW 71.5 km/h 71.5 km/h 76 % 0 mm 0.0 W/m2 CLR
21:42 -14.4 °C -16.6 °C 34682.8 hPa NW 71.5 km/h 71.5 km/h 76 % 0 mm 0.0 W/m2 CLR
21:47 -14.4 °C -16.6 °C 34682.8 hPa NW 71.5 km/h 71.5 km/h 76 % 0 mm 0.0 W/m2 CLR
21:52 -14.5 °C -16.6 °C 34693 hPa NW 77.7 km/h 77.7 km/h 76 % 0 mm 0.0 W/m2 CLR
21:57 -14.5 °C -16.6 °C 34693 hPa NW 62.6 km/h 62.6 km/h 77 % 0 mm 0.0 W/m2 CLR
22:02 -14.6 °C -16.6 °C 34693 hPa NW 65.5 km/h 65.5 km/h 77 % 0 mm 0.0 W/m2 CLR
22:07 -14.6 °C -16.6 °C 34693 hPa NW 68.6 km/h 68.6 km/h 77 % 0 mm 0.0 W/m2 CLR
22:12 -14.6 °C -16.6 °C 34693 hPa NW 59.5 km/h 59.5 km/h 77 % 0 mm 0.0 W/m2 CLR
22:17 -14.6 °C -16.6 °C 34703.1 hPa NW 59.5 km/h 59.5 km/h 77 % 0 mm 0.0 W/m2 CLR
22:22 -14.6 °C -16.7 °C 34693 hPa NW 64.7 km/h 64.7 km/h 77 % 0 mm 0.0 W/m2 CLR
22:27 -14.6 °C -16.6 °C 34693 hPa NW 77.4 km/h 77.4 km/h 77 % 0 mm 0.0 W/m2 CLR
22:32 -14.6 °C -16.6 °C 34703.1 hPa NW 71.5 km/h 71.5 km/h 77 % 0 mm 0.0 W/m2 CLR
22:37 -14.6 °C -16.6 °C 34703.1 hPa NW 72.6 km/h 72.6 km/h 77 % 0 mm 0.0 W/m2 CLR
22:42 -14.6 °C -16.6 °C 34703.1 hPa NW 65.5 km/h 65.5 km/h 78 % 0 mm 0.0 W/m2 CLR
22:47 -14.6 °C -16.6 °C 34703.1 hPa NW 62.6 km/h 62.6 km/h 77 % 0 mm 0.0 W/m2 CLR
22:52 -14.6 °C -16.7 °C 34703.1 hPa NW 65.5 km/h 65.5 km/h 77 % 0 mm 0.0 W/m2 CLR
22:57 -14.6 °C -16.7 °C 34703.1 hPa NW 50.7 km/h 50.7 km/h 77 % 0 mm 0.0 W/m2 CLR
23:02 -14.6 °C -16.7 °C 34703.1 hPa NW 56.6 km/h 56.6 km/h 77 % 0 mm 0.0 W/m2 CLR
23:07 -14.6 °C -16.6 °C 34703.1 hPa NW 65.5 km/h 65.5 km/h 78 % 0 mm 0.0 W/m2 CLR
23:08 -14.6 °C -16.6 °C 34703.1 hPa NW 65.5 km/h 65.5 km/h 78 % 0 mm 0.0 W/m2 CLR
23:13 -14.6 °C -16.7 °C 34703.1 hPa NW 68.6 km/h 68.6 km/h 77 % 0 mm 0.0 W/m2 CLR
23:18 -14.6 °C -16.6 °C 34703.1 hPa NW 56.6 km/h 56.6 km/h 78 % 0 mm 0.0 W/m2 CLR
23:23 -14.6 °C -16.6 °C 34703.1 hPa NW 62.6 km/h 62.6 km/h 78 % 0 mm 0.0 W/m2 CLR
23:28 -14.7 °C -16.6 °C 34693 hPa NW 65.5 km/h 65.5 km/h 78 % 0 mm 0.0 W/m2 CLR
23:33 -14.7 °C -16.6 °C 34693 hPa NW 47.6 km/h 47.6 km/h 78 % 0 mm 0.0 W/m2 CLR
23:38 -14.7 °C -16.7 °C 34693 hPa NW 56.6 km/h 56.6 km/h 78 % 0 mm 0.0 W/m2 CLR
23:43 -14.7 °C -16.7 °C 34693 hPa NW 68.6 km/h 68.6 km/h 78 % 0 mm 0.0 W/m2 CLR
23:48 -14.7 °C -16.7 °C 34693 hPa NW 59.5 km/h 59.5 km/h 78 % 0 mm 0.0 W/m2 CLR
23:53 -14.7 °C -16.7 °C 34693 hPa NW 51.8 km/h 51.8 km/h 78 % 0 mm 0.0 W/m2 CLR
23:58 -14.7 °C -16.6 °C 34693 hPa NW 68.6 km/h 68.6 km/h 79 % 0 mm 0.0 W/m2 CLR
Lo Temps de Massalio
Compliments of Weather Underground - 1.25 mb